Time,TemperatureF,DewpointF,PressureIn,WindDirection,WindDirectionDegrees,WindSpeedMPH,WindSpeedGustMPH,Humidity,HourlyPrecipIn,Conditions,Clouds,dailyrainin,SolarRadiationWatts/m^2,SoftwareType,DateUTC
2013-01-06 15:43:00,40.0,15.0,-100.00,ESE,105,7.0,14.0,35,-99.99,,,-99.99,380.000000,,2013-01-06 22:43:00,
2013-01-06 16:43:00,34.0,11.0,-100.00,SE,124,4.0,13.0,37,-99.99,,,-99.99,70.000000,,2013-01-06 23:43:00,
2013-01-06 16:53:00,34.0,11.0,-100.00,SE,124,4.0,13.0,37,-99.99,,,-99.99,70.000000,,2013-01-06 23:53:00,
2013-01-06 17:02:00,34.0,11.0,-100.00,SE,124,4.0,13.0,37,-99.99,,,-99.99,70.000000,,2013-01-07 00:02:00,
2013-01-06 17:12:00,34.0,11.0,-100.00,SE,124,4.0,13.0,37,-99.99,,,-99.99,70.000000,,2013-01-07 00:12:00,
2013-01-06 17:33:00,31.0,11.0,-100.00,ENE,57,2.0,10.0,42,-99.99,,,-99.99,8.000000,,2013-01-07 00:33:00,
2013-01-06 17:43:00,31.0,11.0,-100.00,ENE,57,2.0,10.0,42,-99.99,,,-99.99,8.000000,,2013-01-07 00:43:00,
2013-01-06 17:53:00,31.0,11.0,-100.00,ENE,57,2.0,10.0,42,-99.99,,,-99.99,8.000000,,2013-01-07 00:53:00,
2013-01-06 18:02:00,31.0,11.0,-100.00,ENE,57,2.0,10.0,42,-99.99,,,-99.99,8.000000,,2013-01-07 01:02:00,
2013-01-06 18:12:00,31.0,11.0,-100.00,ENE,57,2.0,10.0,42,-99.99,,,-99.99,8.000000,,2013-01-07 01:12:00,
2013-01-06 18:43:00,27.0,14.0,-100.00,WNW,284,2.0,5.0,57,-99.99,,,-99.99,0.000000,,2013-01-07 01:43:00,
2013-01-06 18:53:00,27.0,14.0,-100.00,WNW,284,2.0,5.0,57,-99.99,,,-99.99,0.000000,,2013-01-07 01:53:00,
2013-01-06 19:02:00,27.0,14.0,-100.00,WNW,284,2.0,5.0,57,-99.99,,,-99.99,0.000000,,2013-01-07 02:02:00,
2013-01-06 19:12:00,27.0,14.0,-100.00,WNW,284,2.0,5.0,57,-99.99,,,-99.99,0.000000,,2013-01-07 02:12:00,
2013-01-06 19:43:00,27.0,15.0,-100.00,WNW,294,3.0,9.0,59,-99.99,,,-99.99,0.000000,,2013-01-07 02:43:00,
2013-01-06 19:53:00,27.0,15.0,-100.00,WNW,294,3.0,9.0,59,-99.99,,,-99.99,0.000000,,2013-01-07 02:53:00,
2013-01-06 20:02:00,27.0,15.0,-100.00,WNW,294,3.0,9.0,59,-99.99,,,-99.99,0.000000,,2013-01-07 03:02:00,
2013-01-06 20:12:00,27.0,15.0,-100.00,WNW,294,3.0,9.0,59,-99.99,,,-99.99,0.000000,,2013-01-07 03:12:00,
2013-01-06 20:33:00,27.0,13.0,-100.00,WNW,283,3.0,7.0,56,-99.99,,,-99.99,0.000000,,2013-01-07 03:33:00,
2013-01-06 20:43:00,27.0,13.0,-100.00,WNW,283,3.0,7.0,56,-99.99,,,-99.99,0.000000,,2013-01-07 03:43:00,
2013-01-06 20:53:00,27.0,13.0,-100.00,WNW,283,3.0,7.0,56,-99.99,,,-99.99,0.000000,,2013-01-07 03:53:00,
2013-01-06 21:02:00,27.0,13.0,-100.00,WNW,283,3.0,7.0,56,-99.99,,,-99.99,0.000000,,2013-01-07 04:02:00,
2013-01-06 21:12:00,27.0,13.0,-100.00,WNW,283,3.0,7.0,56,-99.99,,,-99.99,0.000000,,2013-01-07 04:12:00,
2013-01-06 21:42:00,27.0,14.0,-100.00,WNW,286,0.0,5.0,58,-99.99,,,-99.99,0.000000,,2013-01-07 04:42:00,
2013-01-06 21:52:00,27.0,14.0,-100.00,WNW,286,0.0,5.0,58,-99.99,,,-99.99,0.000000,,2013-01-07 04:52:00,
2013-01-06 22:02:00,27.0,14.0,-100.00,WNW,286,0.0,5.0,58,-99.99,,,-99.99,0.000000,,2013-01-07 05:02:00,
2013-01-06 22:12:00,27.0,14.0,-100.00,WNW,286,0.0,5.0,58,-99.99,,,-99.99,0.000000,,2013-01-07 05:12:00,
2013-01-06 22:43:00,28.0,11.0,-100.00,ENE,68,0.0,0.0,48,-99.99,,,-99.99,0.000000,,2013-01-07 05:43:00,
2013-01-06 22:53:00,28.0,11.0,-100.00,ENE,68,0.0,0.0,48,-99.99,,,-99.99,0.000000,,2013-01-07 05:53:00,
2013-01-06 23:02:00,28.0,11.0,-100.00,ENE,68,0.0,0.0,48,-99.99,,,-99.99,0.000000,,2013-01-07 06:02:00,
2013-01-06 23:12:00,28.0,11.0,-100.00,ENE,68,0.0,0.0,48,-99.99,,,-99.99,0.000000,,2013-01-07 06:12:00,
2013-01-06 23:42:00,25.0,12.0,-100.00,West,262,0.0,0.0,58,-99.99,,,-99.99,0.000000,,2013-01-07 06:42:00,
2013-01-06 23:52:00,25.0,12.0,-100.00,West,262,0.0,0.0,58,-99.99,,,-99.99,0.000000,,2013-01-07 06:52:00,